Time;durP1;ratioP1;P1;durP2;ratioP2;P2;SDS_P1;SDS_P2;PMS_P1;PMS_P2;Temp;Humidity;BMP_temperature;BMP_pressure;BME280_temperature;BME280_humidity;BME280_pressure;Samples;Min_cycle;Max_cycle;Signal;HPM_P1;HPM_P2
2021/01/09 00:01:42;;;;;;;15.70;11.17;;;;;;;0.89;75.50;99396.05;1679385;83;21231;-60
2021/01/09 00:04:09;;;;;;;21.27;12.27;;;;;;;0.88;75.56;99391.65;1708166;81;21124;-61
2021/01/09 00:06:39;;;;;;;20.13;12.00;;;;;;;0.88;75.64;99392.98;1678095;83;21312;-59
2021/01/09 00:09:07;;;;;;;17.43;11.20;;;;;;;0.88;75.67;99392.98;1683051;83;21234;-60
2021/01/09 00:11:36;;;;;;;20.17;11.07;;;;;;;0.88;75.73;99397.83;1693192;82;21020;-60
2021/01/09 00:14:03;;;;;;;15.30;10.67;;;;;;;0.90;75.77;99396.48;1686089;82;21258;-60
2021/01/09 00:16:31;;;;;;;16.87;11.83;;;;;;;0.92;75.80;99396.02;1687817;82;21661;-59
2021/01/09 00:18:58;;;;;;;19.30;12.10;;;;;;;0.92;75.85;99393.38;1687556;82;22977;-59
2021/01/09 00:21:36;;;;;;;18.83;12.93;;;;;;;0.92;75.87;99401.32;1686734;82;21234;-60
2021/01/09 00:24:06;;;;;;;18.23;12.27;;;;;;;0.92;75.85;99394.70;1683667;82;21190;-60
2021/01/09 00:26:35;;;;;;;17.50;12.17;;;;;;;0.93;75.87;99399.09;1681033;83;21115;-60
2021/01/09 00:29:03;;;;;;;17.47;10.77;;;;;;;0.91;75.89;99400.44;1732580;80;21231;-60
2021/01/09 00:31:32;;;;;;;18.77;12.70;;;;;;;0.93;75.93;99403.08;1733973;80;21432;-60
2021/01/09 00:34:00;;;;;;;17.20;11.83;;;;;;;0.92;75.99;99398.67;1730500;80;21715;-61
2021/01/09 00:36:27;;;;;;;16.13;12.00;;;;;;;0.92;76.03;99405.30;1731857;80;21232;-60
2021/01/09 00:38:54;;;;;;;21.17;13.23;;;;;;;0.95;76.05;99405.23;1733887;80;21205;-60
2021/01/09 00:41:29;;;;;;;20.47;13.40;;;;;;;0.98;76.08;99403.87;1729956;80;21176;-60
2021/01/09 00:43:56;;;;;;;;;;;;;;;0.99;76.10;99406.50;1734543;80;21675;-59
2021/01/09 00:46:24;;;;;;;16.13;10.63;;;;;;;0.99;76.16;99407.83;1734524;80;20358;-60
2021/01/09 00:48:51;;;;;;;20.93;13.03;;;;;;;0.99;76.18;99405.17;1732341;80;21227;-59
2021/01/09 00:51:18;;;;;;;19.90;13.27;;;;;;;0.98;76.19;99399.89;1730072;80;21172;-60
2021/01/09 00:53:45;;;;;;;21.60;14.30;;;;;;;0.97;76.16;99396.81;1730712;80;21224;-60
2021/01/09 00:56:16;;;;;;;19.47;12.43;;;;;;;0.97;76.19;99395.48;1732115;80;22323;-59
2021/01/09 00:58:43;;;;;;;19.33;12.30;;;;;;;0.99;76.30;99397.67;1728603;80;21521;-61
2021/01/09 01:01:11;;;;;;;19.40;12.10;;;;;;;0.98;76.27;99389.29;1730250;80;21137;-60
2021/01/09 01:03:42;;;;;;;19.87;12.43;;;;;;;0.97;76.33;99387.53;1732565;80;21543;-61
2021/01/09 01:06:10;;;;;;;19.87;11.67;;;;;;;0.98;76.33;99383.99;1734935;80;21120;-60
2021/01/09 01:08:37;;;;;;;19.93;12.60;;;;;;;0.97;76.37;99380.91;1734447;80;21990;-61
2021/01/09 01:11:06;;;;;;;19.77;12.77;;;;;;;0.96;76.38;99381.81;1730241;80;21212;-60
2021/01/09 01:13:33;;;;;;;22.60;14.20;;;;;;;0.96;76.41;99379.16;1697117;81;21168;-61
2021/01/09 01:16:00;;;;;;;26.13;15.27;;;;;;;0.96;76.47;99383.13;1732467;80;21225;-60
2021/01/09 01:18:28;;;;;;;21.77;14.63;;;;;;;0.95;76.48;99374.75;1730382;80;21216;-60
2021/01/09 01:20:56;;;;;;;22.50;15.67;;;;;;;0.95;76.53;99375.63;1728904;80;22309;-61
2021/01/09 01:23:23;;;;;;;23.50;14.60;;;;;;;0.95;76.54;99381.38;1731690;80;21205;-60
2021/01/09 01:25:51;;;;;;;19.53;13.17;;;;;;;0.96;76.57;99375.18;1735266;80;21653;-60
2021/01/09 01:28:18;;;;;;;21.80;13.80;;;;;;;0.99;76.62;99380.00;1733052;80;21280;-60
2021/01/09 01:30:50;;;;;;;20.50;13.90;;;;;;;1.01;76.65;99375.55;1737012;80;21188;-60
2021/01/09 01:33:17;;;;;;;20.73;13.63;;;;;;;1.05;76.63;99377.69;1703863;80;22162;-61
2021/01/09 01:35:44;;;;;;;24.47;15.27;;;;;;;1.05;76.64;99382.98;1730800;80;21461;-61
2021/01/09 01:38:12;;;;;;;25.37;16.80;;;;;;;1.05;76.65;99379.89;1734651;80;21172;-60
2021/01/09 01:40:39;;;;;;;26.67;16.83;;;;;;;1.02;76.69;99371.98;1733015;80;21210;-60
2021/01/09 01:43:10;;;;;;;22.77;15.97;;;;;;;1.03;76.75;99371.08;1731239;80;22595;-59
2021/01/09 01:45:40;;;;;;;24.70;17.23;;;;;;;1.04;76.78;99366.66;1736214;80;21633;-59
2021/01/09 01:48:09;;;;;;;27.23;16.43;;;;;;;1.03;76.74;99370.20;1736301;80;22089;-60
2021/01/09 01:50:38;;;;;;;25.10;15.33;;;;;;;1.04;76.81;99373.28;1737340;80;21119;-60
2021/01/09 01:53:06;;;;;;;25.37;15.57;;;;;;;1.02;76.85;99369.33;1734323;80;21118;-63
2021/01/09 01:55:33;;;;;;;25.90;15.70;;;;;;;1.02;76.85;99368.48;1731661;80;21127;-60
2021/01/09 01:58:00;;;;;;;25.43;15.57;;;;;;;1.02;76.90;99369.81;1732684;80;21205;-60
2021/01/09 02:00:28;;;;;;;27.00;17.17;;;;;;;1.02;76.94;99361.86;1730986;80;21170;-60
2021/01/09 02:02:55;;;;;;;29.70;16.60;;;;;;;1.02;76.95;99355.23;1734200;80;21144;-59
2021/01/09 02:05:24;;;;;;;29.00;17.20;;;;;;;1.05;76.95;99358.69;1706230;80;21374;-61
2021/01/09 02:07:56;;;;;;;22.40;15.03;;;;;;;1.06;76.95;99356.91;1733495;80;21094;-61
2021/01/09 02:10:24;;;;;;;22.43;14.60;;;;;;;1.09;77.02;99353.78;1733307;80;21220;-60
2021/01/09 02:13:28;;;;;;;26.67;16.50;;;;;;;1.11;76.99;99349.75;1737655;80;21183;-60
2021/01/09 02:15:57;;;;;;;25.40;15.63;;;;;;;1.13;77.03;99348.83;1738410;80;21114;-60
2021/01/09 02:18:24;;;;;;;30.70;18.47;;;;;;;1.14;77.02;99348.38;1733383;80;21113;-59
2021/01/09 02:20:51;;;;;;;25.83;16.03;;;;;;;1.14;76.99;99349.70;1732014;80;21119;-60
2021/01/09 02:23:26;;;;;;;25.23;16.90;;;;;;;1.12;76.97;99351.05;1705838;80;21402;-60
2021/01/09 02:25:53;;;;;;;25.70;16.73;;;;;;;1.12;77.00;99355.03;1733051;80;21178;-60
2021/01/09 02:28:21;;;;;;;25.97;17.20;;;;;;;1.12;77.01;99356.36;1730739;80;21345;-60
2021/01/09 02:30:48;;;;;;;24.77;16.63;;;;;;;1.13;77.03;99350.60;1738143;80;21467;-60
2021/01/09 02:33:16;;;;;;;25.17;15.30;;;;;;;1.12;77.01;99345.75;1737351;80;20985;-60
2021/01/09 02:35:43;;;;;;;23.07;16.20;;;;;;;1.12;77.10;99344.42;1737131;80;21290;-60
2021/01/09 02:38:10;;;;;;;25.90;16.60;;;;;;;1.12;77.10;99342.22;1735183;80;21502;-61
2021/01/09 02:40:41;;;;;;;23.57;15.67;;;;;;;1.15;77.12;99339.53;1729100;80;21286;-60
2021/01/09 02:43:13;;;;;;;24.87;14.50;;;;;;;1.18;77.12;99334.19;1733879;80;21175;-60
2021/01/09 02:45:41;;;;;;;22.70;15.87;;;;;;;1.22;77.08;99330.56;1738113;80;21171;-59
2021/01/09 02:48:09;;;;;;;22.93;15.17;;;;;;;1.24;77.05;99330.09;1736970;80;21363;-60
2021/01/09 02:50:36;;;;;;;25.90;17.20;;;;;;;1.26;77.04;99339.36;1731717;80;21096;-61
2021/01/09 02:53:03;;;;;;;24.00;16.73;;;;;;;1.26;77.03;99339.36;1732302;80;21179;-61
2021/01/09 02:55:30;;;;;;;25.57;15.73;;;;;;;1.26;76.97;99343.34;1729814;80;21227;-61
2021/01/09 02:57:57;;;;;;;30.07;17.83;;;;;;;1.25;77.00;99344.23;1734011;80;21210;-60
2021/01/09 03:00:25;;;;;;;23.20;15.73;;;;;;;1.25;76.99;99342.45;1733540;80;23452;-60
2021/01/09 03:02:52;;;;;;;22.37;15.30;;;;;;;1.28;76.97;99345.03;1734715;80;21226;-61
2021/01/09 03:05:19;;;;;;;26.03;16.20;;;;;;;1.28;76.95;99337.53;1727516;80;21223;-60
2021/01/09 03:07:47;;;;;;;25.87;16.47;;;;;;;1.29;76.97;99351.22;1729882;80;21202;-60
2021/01/09 03:10:14;;;;;;;26.37;17.17;;;;;;;1.28;76.96;99346.36;1731855;80;21340;-59
2021/01/09 03:12:41;;;;;;;23.93;15.73;;;;;;;1.26;76.95;99345.53;1736838;80;21238;-59
2021/01/09 03:15:10;;;;;;;23.13;15.87;;;;;;;1.25;76.94;99345.11;1730898;80;21484;-59
2021/01/09 03:17:37;;;;;;;25.60;15.33;;;;;;;1.24;76.92;99343.80;1737508;80;21764;-60
2021/01/09 03:20:06;;;;;;;27.70;15.40;;;;;;;1.22;76.92;99344.27;1733823;80;21404;-61
2021/01/09 03:22:33;;;;;;;23.63;15.13;;;;;;;1.20;76.96;99344.30;1732065;80;21700;-60
2021/01/09 03:25:01;;;;;;;25.33;15.37;;;;;;;1.18;77.00;99343.92;1726202;80;21777;-60
2021/01/09 03:27:28;;;;;;;23.83;14.47;;;;;;;1.16;77.08;99341.28;1728032;80;21188;-60
2021/01/09 03:29:55;;;;;;;23.40;15.00;;;;;;;1.16;77.17;99334.66;1727750;80;21223;-61
2021/01/09 03:32:22;;;;;;;23.30;15.17;;;;;;;1.20;77.17;99336.78;1725553;81;21453;-61
2021/01/09 03:34:50;;;;;;;19.00;13.33;;;;;;;1.22;77.20;99341.62;1725619;80;21191;-60
2021/01/09 03:37:17;;;;;;;22.13;15.07;;;;;;;1.24;77.26;99342.48;1725226;81;21746;-60
2021/01/09 03:39:45;;;;;;;26.87;16.70;;;;;;;1.25;77.25;99342.45;1724439;80;21219;-61
2021/01/09 03:42:12;;;;;;;30.50;18.67;;;;;;;1.26;77.24;99342.01;1725561;80;21187;-60
2021/01/09 03:44:39;;;;;;;24.30;15.93;;;;;;;1.26;77.24;99337.58;1727868;80;21665;-60
2021/01/09 03:47:06;;;;;;;22.73;15.77;;;;;;;1.25;77.28;99341.13;1729557;80;21107;-60
2021/01/09 03:49:34;;;;;;;24.33;16.33;;;;;;;1.27;77.23;99347.74;1724641;80;21382;-59
2021/01/09 03:52:02;;;;;;;25.70;15.00;;;;;;;1.27;77.24;99347.74;1725548;80;21695;-60
2021/01/09 03:54:29;;;;;;;24.57;14.20;;;;;;;1.28;77.25;99346.36;1723045;80;21194;-61
2021/01/09 03:56:57;;;;;;;25.00;15.77;;;;;;;1.30;77.32;99354.30;1721832;80;21187;-60
2021/01/09 03:59:24;;;;;;;27.97;17.27;;;;;;;1.31;77.30;99352.95;1727091;80;21594;-61
2021/01/09 04:01:51;;;;;;;32.87;17.17;;;;;;;1.31;77.24;99353.40;1729649;80;22618;-61
2021/01/09 04:04:18;;;;;;;29.33;18.80;;;;;;;1.27;77.25;99355.70;1726680;80;21211;-59
2021/01/09 04:06:46;;;;;;;27.73;17.40;;;;;;;1.25;77.22;99352.19;1723847;80;21733;-60
2021/01/09 04:09:13;;;;;;;27.17;16.87;;;;;;;1.24;77.28;99354.41;1724379;81;21207;-61
2021/01/09 04:11:40;;;;;;;29.17;17.77;;;;;;;1.23;77.35;99359.28;1720404;80;21518;-60
2021/01/09 04:14:07;;;;;;;29.17;17.30;;;;;;;1.24;77.34;99357.06;1723099;80;23573;-60
2021/01/09 04:16:36;;;;;;;26.37;17.40;;;;;;;1.25;77.34;99361.02;1729558;80;21195;-61
2021/01/09 04:19:04;;;;;;;24.40;14.17;;;;;;;1.27;77.37;99359.22;1734538;80;21214;-60
2021/01/09 04:21:32;;;;;;;29.90;17.33;;;;;;;1.27;77.37;99356.57;1727923;80;21941;-61
2021/01/09 04:24:00;;;;;;;29.77;18.47;;;;;;;1.26;77.37;99364.55;1721658;80;21179;-62
2021/01/09 04:26:27;;;;;;;29.00;18.00;;;;;;;1.24;77.41;99367.66;1731805;80;21487;-61
2021/01/09 04:28:54;;;;;;;31.17;18.70;;;;;;;1.21;77.41;99366.38;1732456;80;21469;-62
2021/01/09 04:31:21;;;;;;;27.77;16.53;;;;;;;1.17;77.43;99368.23;1731509;80;21187;-61
2021/01/09 04:33:48;;;;;;;23.93;15.20;;;;;;;1.16;77.50;99368.25;1731098;80;22377;-62
2021/01/09 04:36:15;;;;;;;26.60;16.37;;;;;;;1.14;77.55;99369.59;1730485;80;21254;-61
2021/01/09 04:38:43;;;;;;;22.73;15.03;;;;;;;1.16;77.56;99366.92;1729544;80;21409;-61
2021/01/09 04:41:10;;;;;;;25.63;15.83;;;;;;;1.17;77.62;99358.95;1730933;80;21470;-61
2021/01/09 04:43:37;;;;;;;22.43;14.27;;;;;;;1.20;77.61;99360.65;1736966;80;21236;-61
2021/01/09 04:46:04;;;;;;;26.00;15.87;;;;;;;1.21;77.63;99369.03;1733966;80;21225;-61
2021/01/09 04:48:32;;;;;;;26.03;15.50;;;;;;;1.21;77.64;99365.93;1733531;80;21190;-62
2021/01/09 04:51:00;;;;;;;28.40;18.67;;;;;;;1.22;77.68;99369.02;1732022;80;21605;-62
2021/01/09 04:53:27;;;;;;;29.00;17.77;;;;;;;1.23;77.62;99366.79;1733208;80;21192;-62
2021/01/09 04:55:55;;;;;;;26.83;15.37;;;;;;;1.22;77.59;99366.80;1705351;81;21615;-61
2021/01/09 04:58:22;;;;;;;27.77;17.93;;;;;;;1.22;77.59;99371.66;1704772;80;21219;-61
2021/01/09 05:00:54;;;;;;;28.13;17.87;;;;;;;1.20;77.59;99373.45;1736761;80;21658;-61
2021/01/09 05:03:19;;;;;;;27.77;17.57;;;;;;;1.20;77.58;99377.44;1730487;80;22149;-62
2021/01/09 05:05:47;;;;;;;27.40;17.57;;;;;;;1.19;77.61;99377.48;1701714;80;21206;-61
2021/01/09 05:08:16;;;;;;;26.23;16.43;;;;;;;1.20;77.60;99373.91;1736497;80;21154;-60
2021/01/09 05:10:43;;;;;;;25.23;15.87;;;;;;;1.19;77.56;99386.31;1737028;80;21131;-61
2021/01/09 05:13:10;;;;;;;24.47;17.00;;;;;;;1.19;77.61;99381.46;1736191;80;21128;-61
2021/01/09 05:15:41;;;;;;;25.03;17.13;;;;;;;1.20;77.69;99384.06;1735122;80;21524;-61
2021/01/09 05:18:08;;;;;;;28.50;18.73;;;;;;;1.22;77.68;99388.89;1702842;82;22317;-61
2021/01/09 05:20:35;;;;;;;28.70;18.07;;;;;;;1.23;77.68;99384.02;1735696;80;21212;-61
2021/01/09 05:23:03;;;;;;;29.07;17.07;;;;;;;1.26;77.70;99391.06;1735260;80;21195;-61
2021/01/09 05:25:30;;;;;;;26.80;16.37;;;;;;;1.25;77.69;99384.88;1730036;80;21187;-62
2021/01/09 05:27:58;;;;;;;26.97;17.60;;;;;;;1.23;77.71;99389.32;1727454;80;23265;-62
2021/01/09 05:30:26;;;;;;;31.93;17.27;;;;;;;1.22;77.76;99392.88;1730399;80;21183;-59
2021/01/09 05:32:53;;;;;;;24.23;15.67;;;;;;;1.21;77.84;99397.75;1724602;80;21430;-61
2021/01/09 05:35:20;;;;;;;26.27;15.93;;;;;;;1.22;77.96;99394.64;1724304;80;21761;-60
2021/01/09 05:37:48;;;;;;;23.83;16.10;;;;;;;1.23;78.08;99399.05;1727878;80;21405;-60
2021/01/09 05:40:17;;;;;;;27.13;17.63;;;;;;;1.22;78.09;99404.80;1724043;80;21658;-61
2021/01/09 05:42:45;;;;;;;32.53;19.23;;;;;;;1.22;78.18;99400.83;1726830;80;21205;-61
2021/01/09 05:45:13;;;;;;;29.23;17.03;;;;;;;1.22;78.22;99414.08;1723854;80;21614;-60
2021/01/09 05:47:40;;;;;;;24.80;16.00;;;;;;;1.23;78.23;99414.52;1726047;80;21466;-60
2021/01/09 05:50:08;;;;;;;28.40;17.10;;;;;;;1.25;78.26;99414.49;1727654;80;21207;-61
2021/01/09 05:52:39;;;;;;;27.70;17.50;;;;;;;1.26;78.29;99418.90;1725762;80;21196;-61
2021/01/09 05:55:08;;;;;;;28.60;16.80;;;;;;;1.26;78.29;99422.43;1725243;80;21433;-61
2021/01/09 05:57:35;;;;;;;26.90;17.27;;;;;;;1.23;78.32;99415.84;1728723;80;21143;-60
2021/01/09 06:00:07;;;;;;;27.37;16.77;;;;;;;1.22;78.39;99419.83;1728430;80;21140;-60
2021/01/09 06:02:51;;;;;;;33.93;19.47;;;;;;;1.20;78.43;99422.50;1725652;80;21163;-61
2021/01/09 06:05:18;;;;;;;28.65;17.05;;;;;;;1.19;78.48;99431.38;1721409;80;21631;-61
2021/01/09 06:07:46;;;;;;;26.97;16.40;;;;;;;1.19;78.48;99427.41;1725193;80;21471;-62
2021/01/09 06:10:13;;;;;;;29.57;17.40;;;;;;;1.16;78.54;99431.87;1686222;81;21215;-62
2021/01/09 06:12:58;;;;;;;26.33;17.07;;;;;;;1.14;78.63;99431.44;1722364;80;21207;-62
2021/01/09 06:15:30;;;;;;;30.27;19.23;;;;;;;1.12;78.67;99437.66;1717568;80;21183;-62
2021/01/09 06:17:59;;;;;;;29.73;18.87;;;;;;;1.12;78.78;99441.62;1730951;80;21378;-62
2021/01/09 06:20:27;;;;;;;29.17;18.37;;;;;;;1.11;78.82;99444.73;1727151;80;21203;-62
2021/01/09 06:22:54;;;;;;;29.30;17.73;;;;;;;1.10;78.80;99446.10;1726862;80;21650;-62
2021/01/09 06:25:22;;;;;;;30.00;18.13;;;;;;;1.10;78.84;99445.66;1726230;80;21198;-63
2021/01/09 06:27:53;;;;;;;30.20;18.50;;;;;;;1.13;78.89;99445.59;1709726;81;21135;-61
2021/01/09 06:30:23;;;;;;;29.57;17.00;;;;;;;1.16;78.90;99445.13;1740128;80;21633;-63
2021/01/09 06:32:55;;;;;;;27.37;16.60;;;;;;;1.17;78.96;99450.41;1731774;80;21207;-61
2021/01/09 06:35:22;;;;;;;33.50;19.97;;;;;;;1.20;78.97;99448.14;1738680;80;21544;-61
2021/01/09 06:37:50;;;;;;;38.13;20.00;;;;;;;1.23;78.89;99450.75;1703602;82;21227;-61
2021/01/09 06:40:17;;;;;;;33.47;21.23;;;;;;;1.22;78.85;99452.52;1731879;80;21585;-60
2021/01/09 06:42:46;;;;;;;35.70;20.67;;;;;;;1.19;78.89;99448.62;1691355;80;21233;-60
2021/01/09 06:45:14;;;;;;;32.30;19.73;;;;;;;1.20;78.87;99458.74;1737258;80;21195;-61
2021/01/09 06:47:41;;;;;;;29.97;19.03;;;;;;;1.22;78.89;99460.92;1714199;81;21211;-63
2021/01/09 06:50:23;;;;;;;32.63;18.97;;;;;;;1.24;78.84;99465.31;1739246;80;21686;-62
2021/01/09 06:52:59;;;;;;;32.77;18.57;;;;;;;1.23;78.85;99461.36;1738469;80;21724;-61
2021/01/09 06:55:45;;;;;;;32.90;20.03;;;;;;;1.21;78.89;99464.48;1735488;80;22969;-62
2021/01/09 06:58:15;;;;;;;32.08;18.70;;;;;;;1.20;78.90;99467.57;1740955;80;21199;-62
2021/01/09 07:00:42;;;;;;;34.73;19.47;;;;;;;1.19;78.95;99464.97;1743182;80;21667;-61
2021/01/09 07:03:23;;;;;;;29.93;19.50;;;;;;;1.19;78.94;99467.17;1737783;80;21183;-61
2021/01/09 07:05:51;;;;;;;29.43;19.07;;;;;;;1.18;78.99;99465.87;1733174;80;21494;-60
2021/01/09 07:08:28;;;;;;;31.40;17.93;;;;;;;1.17;78.97;99471.62;1734362;80;21379;-61
2021/01/09 07:11:00;;;;;;;32.10;19.43;;;;;;;1.18;78.95;99473.38;1733247;80;21617;-61
2021/01/09 07:13:27;;;;;;;28.77;17.30;;;;;;;1.19;79.01;99476.45;1699617;80;21597;-60
2021/01/09 07:16:13;;;;;;;28.13;17.90;;;;;;;1.22;79.08;99473.73;1736219;80;21139;-61
2021/01/09 07:18:52;;;;;;;34.30;20.40;;;;;;;1.26;79.06;99482.09;1707353;80;21124;-62
2021/01/09 07:21:20;;;;;;;40.53;21.93;;;;;;;1.29;79.00;99482.02;1733945;80;21977;-61
2021/01/09 07:23:52;;;;;;;38.60;22.87;;;;;;;1.31;78.93;99480.67;1734790;80;21184;-61
2021/01/09 07:26:20;;;;;;;40.43;22.33;;;;;;;1.29;78.86;99482.02;1730443;80;21775;-61
2021/01/09 07:28:47;;;;;;;36.07;20.47;;;;;;;1.29;78.89;99488.65;1700859;80;21246;-62
2021/01/09 07:31:15;;;;;;;36.17;19.83;;;;;;;1.29;78.87;99486.00;1731863;80;21179;-61
2021/01/09 07:33:44;;;;;;;32.23;18.57;;;;;;;1.31;78.89;99487.30;1736100;80;21929;-62
2021/01/09 07:36:15;;;;;;;29.17;18.17;;;;;;;1.31;78.90;99493.48;1738148;80;21167;-61
2021/01/09 07:38:48;;;;;;;33.07;20.00;;;;;;;1.33;78.90;99490.81;1686872;80;21118;-61
2021/01/09 07:41:35;;;;;;;35.03;20.93;;;;;;;1.35;78.89;99490.35;1736969;80;21264;-61
2021/01/09 07:44:16;;;;;;;32.80;20.00;;;;;;;1.39;78.81;99486.73;1819548;76;27908;-61
2021/01/09 07:46:57;;;;;;;38.87;21.30;;;;;;;1.33;78.83;99493.02;1798188;77;21186;-60
2021/01/09 07:49:36;;;;;;;32.07;20.07;;;;;;;1.34;78.81;99491.25;1795213;77;22275;-61
2021/01/09 07:52:08;;;;;;;35.47;19.97;;;;;;;1.38;78.84;99499.56;1799961;77;21120;-61
2021/01/09 07:54:43;;;;;;;30.90;20.20;;;;;;;1.39;78.90;99498.67;1797010;77;20937;-60
2021/01/09 07:57:22;;;;;;;35.03;20.37;;;;;;;1.39;78.99;99502.64;1798777;77;20946;-60
2021/01/09 08:00:02;;;;;;;32.33;19.77;;;;;;;1.39;79.10;99502.20;1801419;77;20965;-61
2021/01/09 08:02:39;;;;;;;32.70;19.97;;;;;;;1.40;79.22;99501.30;1793753;77;21197;-60
2021/01/09 08:05:19;;;;;;;33.98;20.32;;;;;;;1.40;79.27;99499.98;1802623;77;21126;-61
2021/01/09 08:07:52;;;;;;;36.23;22.00;;;;;;;1.39;79.33;99498.67;1801597;77;20969;-59
2021/01/09 08:10:34;;;;;;;32.83;21.17;;;;;;;1.38;79.36;99507.08;1795762;77;21090;-60
2021/01/09 08:13:04;;;;;;;34.07;20.40;;;;;;;1.39;79.42;99502.20;1795141;77;21088;-62
2021/01/09 08:15:37;;;;;;;32.83;18.30;;;;;;;1.43;79.37;99501.72;1794831;77;21441;-61
2021/01/09 08:18:05;;;;;;;31.77;20.50;;;;;;;1.45;79.41;99502.55;1797238;77;21411;-61
2021/01/09 08:20:33;;;;;;;35.67;21.17;;;;;;;1.47;79.45;99504.73;1795668;77;21138;-61
2021/01/09 08:23:02;;;;;;;32.20;20.87;;;;;;;1.48;79.45;99508.69;1794892;77;21128;-61
2021/01/09 08:25:35;;;;;;;34.40;21.40;;;;;;;1.50;79.46;99505.58;1803741;77;21076;-61
2021/01/09 08:28:03;;;;;;;39.37;23.30;;;;;;;1.52;79.47;99508.20;1802998;77;21435;-61
2021/01/09 08:30:34;;;;;;;37.40;22.17;;;;;;;1.53;79.41;99506.83;1797878;77;21131;-61
2021/01/09 08:33:07;;;;;;;33.23;20.70;;;;;;;1.55;79.46;99501.95;1799591;77;21332;-61
2021/01/09 08:35:36;;;;;;;34.80;19.67;;;;;;;1.58;79.40;99497.48;1795853;77;21730;-61
2021/01/09 08:38:04;;;;;;;32.00;19.63;;;;;;;1.61;79.40;99497.45;1798199;77;22009;-61
2021/01/09 08:40:33;;;;;;;27.97;18.17;;;;;;;1.64;79.36;99496.50;1795054;77;22107;-60
2021/01/09 08:43:05;;;;;;;34.57;20.43;;;;;;;1.66;79.30;99494.26;1798120;77;21146;-61
2021/01/09 08:45:46;;;;;;;34.50;21.00;;;;;;;1.69;79.31;99490.24;1811819;77;21185;-61
2021/01/09 08:48:20;;;;;;;36.20;21.83;;;;;;;1.71;79.26;99493.72;1811514;77;21505;-60
2021/01/09 08:51:10;;;;;;;32.87;19.57;;;;;;;1.71;79.16;99495.49;1806067;76;21182;-62
2021/01/09 08:54:00;;;;;;;32.27;19.10;;;;;;;1.69;79.08;99490.24;1809409;77;21361;-61
2021/01/09 08:56:28;;;;;;;30.03;19.33;;;;;;;1.69;78.99;99493.34;1780815;78;21035;-61
2021/01/09 08:59:01;;;;;;;31.97;17.93;;;;;;;1.72;79.04;99491.94;1807521;77;21118;-62
2021/01/09 09:01:41;;;;;;;25.67;16.87;;;;;;;1.72;78.95;99491.94;1808345;77;21019;-61
2021/01/09 09:04:09;;;;;;;25.03;17.10;;;;;;;1.75;78.71;99483.49;1791017;78;21144;-62
2021/01/09 09:06:40;;;;;;;29.00;17.77;;;;;;;1.76;78.68;99487.91;1748724;80;21205;-61
2021/01/09 09:09:08;;;;;;;29.10;18.60;;;;;;;1.78;78.64;99486.55;1789799;78;21171;-60
2021/01/09 09:11:37;;;;;;;28.53;17.43;;;;;;;1.78;78.60;99483.45;1753460;80;21126;-61
2021/01/09 09:14:11;;;;;;;27.07;17.07;;;;;;;1.78;78.47;99487.44;1752564;78;21132;-60
2021/01/09 09:19:19;;;;;;;27.53;16.57;;;;;;;1.79;78.30;99476.34;1864179;74;26601;-60
2021/01/09 09:21:48;;;;;;;23.37;14.73;;;;;;;1.77;78.13;99487.00;1834982;75;21162;-62
2021/01/09 09:24:16;;;;;;;26.57;15.77;;;;;;;1.81;78.21;99483.83;1835620;75;21332;-61
2021/01/09 09:26:43;;;;;;;30.40;18.50;;;;;;;1.86;77.91;99478.01;1835617;75;20984;-61
2021/01/09 09:29:13;;;;;;;25.83;16.37;;;;;;;1.89;77.88;99473.95;1833549;75;21028;-61
2021/01/09 09:31:42;;;;;;;27.37;16.47;;;;;;;1.93;77.82;99479.64;1837527;75;22346;-62
2021/01/09 09:34:14;;;;;;;25.90;14.87;;;;;;;1.95;77.74;99477.84;1831501;75;21204;-62
2021/01/09 09:36:54;;;;;;;22.60;15.17;;;;;;;1.90;77.53;99471.72;1791154;78;21242;-61
2021/01/09 09:39:23;;;;;;;22.60;14.03;;;;;;;1.90;77.29;99470.40;1799710;77;21438;-62
2021/01/09 09:42:03;;;;;;;24.97;14.87;;;;;;;1.88;77.25;99464.23;1801003;77;21198;-61
2021/01/09 09:44:44;;;;;;;21.60;14.43;;;;;;;1.90;77.22;99461.11;1796465;77;21122;-61
2021/01/09 09:47:24;;;;;;;22.17;14.33;;;;;;;1.95;77.21;99455.73;1796060;77;21202;-61
2021/01/09 09:49:58;;;;;;;24.67;13.80;;;;;;;1.98;77.11;99456.53;1791315;77;21676;-63
2021/01/09 09:52:26;;;;;;;21.57;13.23;;;;;;;2.03;77.03;99448.50;1788512;77;21788;-63
2021/01/09 09:55:01;;;;;;;21.27;13.07;;;;;;;2.03;76.54;99452.03;1792435;77;21166;-63
2021/01/09 09:57:28;;;;;;;;;;;;;;;2.02;76.35;99457.37;1797674;77;21141;-60
2021/01/09 10:00:09;;;;;;;17.13;11.67;;;;;;;2.02;76.06;99457.37;1802291;77;20308;-62
2021/01/09 10:02:52;;;;;;;18.97;11.80;;;;;;;1.99;76.09;99446.34;1797365;77;22292;-62
2021/01/09 10:05:21;;;;;;;18.63;12.70;;;;;;;2.02;76.06;99452.94;1780695;78;21186;-61
2021/01/09 10:07:48;;;;;;;23.13;13.47;;;;;;;2.05;75.68;99455.96;1778582;78;21127;-61
2021/01/09 10:10:20;;;;;;;20.93;13.27;;;;;;;2.08;75.61;99454.14;1779199;78;21548;-61
2021/01/09 10:12:58;;;;;;;20.70;13.17;;;;;;;2.09;75.51;99450.58;1774481;78;21389;-61
2021/01/09 10:15:26;;;;;;;21.10;13.47;;;;;;;2.11;75.39;99449.23;1732090;78;21212;-62
2021/01/09 10:17:56;;;;;;;23.67;14.33;;;;;;;2.09;74.99;99450.58;1770412;79;21178;-61
2021/01/09 10:20:24;;;;;;;22.83;14.67;;;;;;;2.09;74.87;99451.03;1763066;80;21225;-62
2021/01/09 10:22:51;;;;;;;24.57;13.57;;;;;;;2.05;74.59;99450.66;1773064;79;21701;-61
2021/01/09 10:25:19;;;;;;;21.37;13.90;;;;;;;2.02;74.27;99448.08;1771972;80;21204;-61
2021/01/09 10:27:46;;;;;;;19.77;12.63;;;;;;;2.01;74.12;99448.98;1764658;80;21435;-61
2021/01/09 10:30:14;;;;;;;20.80;13.90;;;;;;;2.02;73.87;99445.42;1772144;80;21166;-61
2021/01/09 10:32:41;;;;;;;22.40;15.10;;;;;;;2.02;73.91;99446.75;1767957;80;21699;-60
2021/01/09 10:35:10;;;;;;;25.50;15.93;;;;;;;2.04;73.86;99443.14;1771624;80;21835;-60
2021/01/09 10:37:37;;;;;;;26.40;17.00;;;;;;;2.06;73.96;99451.95;1774222;80;21273;-61
2021/01/09 10:40:06;;;;;;;27.80;16.97;;;;;;;2.09;74.05;99446.59;1768862;79;21627;-60
2021/01/09 10:42:34;;;;;;;25.63;15.77;;;;;;;2.11;74.15;99440.81;1806087;77;21192;-61
2021/01/09 10:45:03;;;;;;;22.33;14.73;;;;;;;2.14;73.89;99443.39;1770105;79;21442;-62
2021/01/09 10:47:30;;;;;;;28.10;17.97;;;;;;;2.15;73.89;99445.59;1780155;79;21175;-61
2021/01/09 10:49:58;;;;;;;23.57;14.30;;;;;;;2.16;73.78;99444.70;1769908;79;21208;-61
2021/01/09 10:52:25;;;;;;;28.37;17.43;;;;;;;2.18;73.78;99442.89;1774530;79;22796;-61
2021/01/09 10:54:52;;;;;;;25.83;15.23;;;;;;;2.19;73.45;99438.89;1773965;80;21182;-62
2021/01/09 10:57:20;;;;;;;24.90;14.90;;;;;;;2.20;73.40;99444.63;1777379;80;21123;-61
2021/01/09 10:59:47;;;;;;;19.17;13.57;;;;;;;2.26;73.42;99440.52;1768306;79;21193;-61
2021/01/09 11:04:51;;;;;;;27.20;14.87;;;;;;;2.28;72.46;99439.16;1863974;75;26728;-61
2021/01/09 11:07:18;;;;;;;25.00;15.23;;;;;;;2.21;72.02;99442.36;1842247;76;21375;-61
2021/01/09 11:09:46;;;;;;;22.13;14.63;;;;;;;2.17;71.79;99436.70;1839126;76;21789;-61
2021/01/09 11:12:13;;;;;;;24.07;14.07;;;;;;;2.16;71.79;99438.05;1844443;76;21194;-61
2021/01/09 11:14:42;;;;;;;22.37;13.33;;;;;;;2.17;71.35;99438.03;1839898;76;21163;-64
2021/01/09 11:17:10;;;;;;;25.77;15.93;;;;;;;2.19;71.40;99442.88;1838622;76;21136;-60
2021/01/09 11:19:38;;;;;;;27.93;16.97;;;;;;;2.23;71.31;99442.34;1809208;78;21054;-61
2021/01/09 11:22:05;;;;;;;25.00;15.97;;;;;;;2.30;71.32;99439.14;1784504;78;22311;-61
2021/01/09 11:24:33;;;;;;;20.57;13.87;;;;;;;2.32;71.03;99442.61;1779830;78;21173;-61
2021/01/09 11:27:02;;;;;;;23.50;13.57;;;;;;;2.30;70.19;99441.79;1779917;78;21278;-60
2021/01/09 11:29:30;;;;;;;21.17;12.73;;;;;;;2.24;69.71;99440.11;1809474;78;21691;-61
2021/01/09 11:32:00;;;;;;;18.30;11.67;;;;;;;2.16;69.03;99440.27;1766861;79;21268;-62
2021/01/09 11:34:28;;;;;;;17.97;10.73;;;;;;;2.11;68.61;99448.78;1767125;79;21467;-60
2021/01/09 11:36:55;;;;;;;18.60;12.20;;;;;;;2.04;68.09;99441.81;1769644;79;21153;-69
2021/01/09 11:42:22;;;;;;;17.63;10.60;;;;;;;2.00;68.08;99440.13;1797604;78;26571;-62
2021/01/09 11:44:50;;;;;;;21.70;13.40;;;;;;;1.99;68.12;99438.83;1768386;79;21199;-64
2021/01/09 11:47:17;;;;;;;21.37;12.40;;;;;;;1.96;67.85;99438.42;1767052;79;21223;-63